Terminal Aerodrome Forecast
Issued by NWS

Home | Current Version | Previous Version | Text Only | Print | Product List | Glossary On
Versions: 1 2 3 4 5 6 7 8 9 10 11 12 13 14 15 16 17 18
000
FTUS42 TJSJ 220500
TAFJSJ
TAF
TJSJ 220521Z 2206/2306 00000KT P6SM FEW030 SCT060
     FM221300 08012KT P6SM SCT025
     FM222200 10006KT P6SM FEW030 SCT070=

USA.gov is the U.S. government's official web portal to all federal, state and local government web resources and services.